createdAt,value
2023-04-09T00:01:28.629Z,14.48
2023-04-09T00:03:56.024Z,14.70
2023-04-09T00:06:23.330Z,13.98
2023-04-09T00:08:50.911Z,15.55
2023-04-09T00:11:18.309Z,15.70
2023-04-09T00:13:45.695Z,18.35
2023-04-09T00:16:12.967Z,16.95
2023-04-09T00:18:40.453Z,16.02
2023-04-09T00:21:08.907Z,15.77
2023-04-09T00:23:36.625Z,17.15
2023-04-09T00:26:03.787Z,16.38
2023-04-09T00:28:31.029Z,17.17
2023-04-09T00:30:58.248Z,19.33
2023-04-09T00:33:25.903Z,19.50
2023-04-09T00:35:53.105Z,19.70
2023-04-09T00:38:20.471Z,19.63
2023-04-09T00:40:47.637Z,20.77
2023-04-09T00:43:14.932Z,21.70
2023-04-09T00:45:42.265Z,18.63
2023-04-09T00:48:09.552Z,18.30
2023-04-09T00:50:36.806Z,21.55
2023-04-09T00:53:04.094Z,20.40
2023-04-09T00:55:31.508Z,20.83
2023-04-09T00:57:58.771Z,18.40
2023-04-09T01:00:28.131Z,19.92
2023-04-09T01:02:55.504Z,18.20
2023-04-09T01:05:22.885Z,18.10
2023-04-09T01:07:51.223Z,17.27
2023-04-09T01:10:18.543Z,17.15
2023-04-09T01:12:46.404Z,16.77
2023-04-09T01:15:13.826Z,18.45
2023-04-09T01:17:41.258Z,16.85
2023-04-09T01:20:08.561Z,16.80
2023-04-09T01:22:35.738Z,17.38
2023-04-09T01:25:03.389Z,17.27
2023-04-09T01:27:37.773Z,17.35
2023-04-09T01:30:05.127Z,17.42
2023-04-09T01:32:33.642Z,18.05
2023-04-09T01:35:00.892Z,18.60
2023-04-09T01:37:28.115Z,17.90
2023-04-09T01:39:55.392Z,19.25
2023-04-09T01:42:22.553Z,18.77
2023-04-09T01:44:49.761Z,19.48
2023-04-09T01:47:17.098Z,18.08
2023-04-09T01:49:44.353Z,19.45
2023-04-09T01:52:11.621Z,18.55
2023-04-09T01:54:39.117Z,16.80
2023-04-09T01:57:06.600Z,17.48
2023-04-09T01:59:33.922Z,17.48
2023-04-09T02:02:01.332Z,18.00
2023-04-09T02:04:28.547Z,17.08
2023-04-09T02:06:56.170Z,17.60
2023-04-09T02:09:23.387Z,17.60
2023-04-09T02:11:50.966Z,17.30
2023-04-09T02:14:18.177Z,16.83
2023-04-09T02:16:47.808Z,18.13
2023-04-09T02:19:15.166Z,17.20
2023-04-09T02:21:42.705Z,16.42
2023-04-09T02:24:09.925Z,16.90
2023-04-09T02:26:37.145Z,17.60
2023-04-09T02:29:04.358Z,17.30
2023-04-09T02:31:31.756Z,16.23
2023-04-09T02:33:59.036Z,17.02
2023-04-09T02:36:27.715Z,19.92
2023-04-09T02:38:55.675Z,18.63
2023-04-09T02:41:23.188Z,19.65
2023-04-09T02:43:50.348Z,15.68
2023-04-09T02:46:17.606Z,17.17
2023-04-09T02:48:44.848Z,17.88
2023-04-09T02:51:12.403Z,17.77
2023-04-09T02:53:41.167Z,18.15
2023-04-09T02:56:08.486Z,18.95
2023-04-09T02:58:35.741Z,17.55
2023-04-09T03:01:03.009Z,19.50
2023-04-09T03:03:31.098Z,17.13
2023-04-09T03:05:58.649Z,18.63
2023-04-09T03:08:26.083Z,17.52
2023-04-09T03:10:53.292Z,17.38
2023-04-09T03:13:20.501Z,19.27
2023-04-09T03:15:47.840Z,19.88
2023-04-09T03:18:15.051Z,19.58
2023-04-09T03:20:42.556Z,19.15
2023-04-09T03:23:11.861Z,18.67
2023-04-09T03:25:43.577Z,20.30
2023-04-09T03:28:14.373Z,19.27
2023-04-09T03:30:51.534Z,20.98
2023-04-09T03:33:21.243Z,19.30
2023-04-09T03:35:54.452Z,19.48
2023-04-09T03:38:37.136Z,21.08
2023-04-09T03:41:10.317Z,20.02
2023-04-09T03:43:37.678Z,19.52
2023-04-09T03:46:05.700Z,20.27
2023-04-09T03:48:32.985Z,20.63
2023-04-09T03:51:00.893Z,18.92
2023-04-09T03:53:36.204Z,20.55
2023-04-09T03:56:06.479Z,21.05
2023-04-09T03:58:34.923Z,18.88
2023-04-09T04:01:02.087Z,19.80
2023-04-09T04:03:37.079Z,19.75
2023-04-09T04:06:16.090Z,20.13
2023-04-09T04:09:04.313Z,21.85
2023-04-09T04:11:49.164Z,20.92
2023-04-09T04:14:17.522Z,20.48
2023-04-09T04:16:48.920Z,21.75
2023-04-09T04:19:19.817Z,22.40
2023-04-09T04:21:50.208Z,23.25
2023-04-09T04:24:17.709Z,21.40
2023-04-09T04:26:44.949Z,23.48
2023-04-09T04:29:15.566Z,21.70
2023-04-09T04:31:55.669Z,20.58
2023-04-09T04:34:25.699Z,20.95
2023-04-09T04:37:09.224Z,19.77
2023-04-09T04:39:36.463Z,20.38
2023-04-09T04:42:09.202Z,20.08
2023-04-09T04:44:36.927Z,19.88
2023-04-09T04:47:27.190Z,18.55
2023-04-09T06:49:36.040Z,15.00
2023-04-09T06:52:03.584Z,14.00
2023-04-09T06:54:30.791Z,13.98
2023-04-09T06:56:58.076Z,13.88
2023-04-09T06:59:25.446Z,14.60
2023-04-09T07:01:54.543Z,14.05
2023-04-09T07:04:22.187Z,11.20
2023-04-09T07:06:49.616Z,14.45
2023-04-09T07:09:17.682Z,14.95
2023-04-09T07:11:45.006Z,15.25
2023-04-09T07:14:12.235Z,16.77
2023-04-09T07:16:39.548Z,15.82
2023-04-09T07:19:07.562Z,16.25
2023-04-09T07:21:34.810Z,15.75
2023-04-09T07:24:02.104Z,14.13
2023-04-09T07:26:29.861Z,15.63
2023-04-09T07:28:58.135Z,14.95
2023-04-09T07:31:25.610Z,16.30
2023-04-09T07:33:52.944Z,15.23
2023-04-09T07:36:21.012Z,15.55
2023-04-09T07:38:48.604Z,15.00
2023-04-09T07:41:15.951Z,16.38
2023-04-09T07:43:43.287Z,12.65
2023-04-09T07:46:10.520Z,15.32
2023-04-09T07:48:37.728Z,16.85
2023-04-09T07:51:06.215Z,14.43
2023-04-09T07:53:33.365Z,14.93
2023-04-09T07:56:00.602Z,17.58
2023-04-09T07:58:28.328Z,14.90
2023-04-09T08:00:55.634Z,16.92
2023-04-09T08:03:23.329Z,16.95
2023-04-09T08:05:50.671Z,16.60
2023-04-09T08:08:17.981Z,17.02
2023-04-09T08:10:45.382Z,16.75
2023-04-09T08:13:12.531Z,19.20
2023-04-09T08:15:39.795Z,18.27
2023-04-09T08:18:07.363Z,17.52
2023-04-09T08:20:34.650Z,16.17
2023-04-09T08:23:01.980Z,18.00
2023-04-09T08:25:29.261Z,16.85
2023-04-09T08:27:56.985Z,16.45
2023-04-09T08:30:24.203Z,16.92
2023-04-09T08:32:51.423Z,17.08
2023-04-09T08:35:18.795Z,18.30
2023-04-09T08:37:45.969Z,16.23
2023-04-09T08:40:13.216Z,15.90
2023-04-09T08:42:40.761Z,18.98
2023-04-09T08:45:08.107Z,18.20
2023-04-09T08:47:35.534Z,16.63
2023-04-09T08:50:02.840Z,18.13
2023-04-09T08:52:30.019Z,18.40
2023-04-09T08:54:57.397Z,18.58
2023-04-09T08:57:24.594Z,17.85
2023-04-09T08:59:52.040Z,15.85
2023-04-09T09:02:19.271Z,16.25
2023-04-09T09:04:46.643Z,16.48
2023-04-09T09:07:13.833Z,16.00
2023-04-09T09:09:41.101Z,16.48
2023-04-09T09:12:08.594Z,14.07
2023-04-09T09:14:35.878Z,14.30
2023-04-09T09:17:03.886Z,12.70
2023-04-09T09:19:31.197Z,12.60
2023-04-09T09:21:58.404Z,11.27
2023-04-09T09:24:25.865Z,11.13
2023-04-09T09:26:54.506Z,12.55
2023-04-09T09:29:21.935Z,12.75
2023-04-09T09:31:49.480Z,9.85
2023-04-09T09:34:17.388Z,11.32
2023-04-09T09:36:44.959Z,11.55
2023-04-09T09:39:13.160Z,11.23
2023-04-09T09:41:40.426Z,12.80
2023-04-09T09:44:07.658Z,12.10
2023-04-09T09:46:34.975Z,11.20
2023-04-09T09:49:02.273Z,9.52
2023-04-09T09:51:29.522Z,10.25
2023-04-09T09:53:57.225Z,9.55
2023-04-09T09:56:25.255Z,8.88
2023-04-09T09:58:52.733Z,8.95
2023-04-09T10:01:20.417Z,9.20
2023-04-09T10:03:47.635Z,9.23
2023-04-09T10:06:14.871Z,9.35
2023-04-09T10:08:42.309Z,9.27
2023-04-09T10:11:09.590Z,10.73
2023-04-09T10:13:36.776Z,9.93
2023-04-09T10:16:04.036Z,10.68
2023-04-09T10:18:33.582Z,8.95
2023-04-09T10:21:01.121Z,9.15
2023-04-09T10:23:28.435Z,10.35
2023-04-09T10:25:55.765Z,10.05
2023-04-09T10:28:22.992Z,8.82
2023-04-09T10:30:50.371Z,10.02
2023-04-09T10:33:19.370Z,10.73
2023-04-09T10:35:46.685Z,9.98
2023-04-09T10:38:13.935Z,10.77
2023-04-09T10:40:41.665Z,11.02
2023-04-09T10:43:08.994Z,10.77
2023-04-09T10:45:36.246Z,10.77
2023-04-09T10:48:03.597Z,11.07
2023-04-09T10:50:32.574Z,10.93
2023-04-09T10:53:00.862Z,10.60
2023-04-09T10:55:28.138Z,10.32
2023-04-09T10:57:55.385Z,10.82
2023-04-09T11:00:22.693Z,11.23
2023-04-09T11:02:50.296Z,10.75
2023-04-09T11:05:17.602Z,9.50
2023-04-09T11:07:45.135Z,9.63
2023-04-09T11:10:12.397Z,11.07
2023-04-09T11:12:39.721Z,9.85
2023-04-09T11:15:07.086Z,9.63
2023-04-09T11:17:34.458Z,9.60
2023-04-09T11:20:02.457Z,10.30
2023-04-09T11:22:29.647Z,10.10
2023-04-09T11:24:56.960Z,10.68
2023-04-09T11:27:24.240Z,9.02
2023-04-09T11:29:51.505Z,10.23
2023-04-09T11:32:18.782Z,9.13
2023-04-09T11:34:46.158Z,9.88
2023-04-09T11:37:13.319Z,11.15
2023-04-09T11:39:41.094Z,9.75
2023-04-09T11:42:08.363Z,9.88
2023-04-09T11:44:35.898Z,9.00
2023-04-09T11:47:03.207Z,9.52
2023-04-09T11:49:30.893Z,9.95
2023-04-09T11:51:58.589Z,9.00
2023-04-09T11:54:25.852Z,9.23
2023-04-09T11:56:56.090Z,9.93
2023-04-09T11:59:23.327Z,9.95
2023-04-09T12:01:51.474Z,9.40
2023-04-09T12:04:19.190Z,8.63
2023-04-09T12:06:46.568Z,9.65
2023-04-09T12:09:14.310Z,10.30
2023-04-09T12:11:42.151Z,9.15
2023-04-09T12:14:11.007Z,8.20
2023-04-09T12:16:38.226Z,8.23
2023-04-09T12:19:05.576Z,7.82
2023-04-09T12:21:33.795Z,8.50
2023-04-09T12:24:01.261Z,9.82
2023-04-09T12:26:28.489Z,8.90
2023-04-09T12:28:55.741Z,8.35
2023-04-09T12:31:23.029Z,8.15
2023-04-09T12:33:50.389Z,8.02
2023-04-09T12:36:17.735Z,7.57
2023-04-09T12:38:44.993Z,6.65
2023-04-09T12:41:13.331Z,6.68
2023-04-09T12:43:41.665Z,7.55
2023-04-09T12:46:10.641Z,8.77
2023-04-09T12:48:37.966Z,8.10
2023-04-09T12:51:05.211Z,7.88
2023-04-09T12:53:32.489Z,7.32
2023-04-09T12:55:59.721Z,8.25
2023-04-09T12:58:27.465Z,7.32
2023-04-09T13:00:56.758Z,7.38
2023-04-09T13:03:24.250Z,7.75
2023-04-09T13:05:51.734Z,8.43
2023-04-09T13:08:19.083Z,7.00
2023-04-09T13:10:46.459Z,8.27
2023-04-09T13:13:13.904Z,7.43
2023-04-09T13:15:43.670Z,7.25
2023-04-09T13:18:11.107Z,6.78
2023-04-09T13:20:38.657Z,6.30
2023-04-09T13:23:06.514Z,6.13
2023-04-09T13:25:33.763Z,6.50
2023-04-09T13:28:01.053Z,6.22
2023-04-09T13:30:28.246Z,5.43
2023-04-09T13:32:55.562Z,5.60
2023-04-09T13:35:22.864Z,5.47
2023-04-09T13:37:50.131Z,6.07
2023-04-09T13:40:17.791Z,6.50
2023-04-09T13:42:45.062Z,6.10
2023-04-09T13:45:12.240Z,5.63
2023-04-09T13:47:39.688Z,5.07
2023-04-09T13:50:07.481Z,5.25
2023-04-09T13:52:34.804Z,5.95
2023-04-09T13:55:03.610Z,5.25
2023-04-09T13:57:30.897Z,5.28
2023-04-09T14:00:01.826Z,5.68
2023-04-09T14:02:32.255Z,4.88
2023-04-09T14:04:59.724Z,3.90
2023-04-09T14:07:27.044Z,3.80
2023-04-09T14:09:54.270Z,3.85
2023-04-09T14:12:21.750Z,4.15
2023-04-09T14:14:50.033Z,4.32
2023-04-09T14:17:17.256Z,4.50
2023-04-09T14:19:44.496Z,3.78
2023-04-09T14:22:11.781Z,3.50
2023-04-09T14:24:40.196Z,3.88
2023-04-09T14:27:08.228Z,3.53
2023-04-09T14:29:35.481Z,3.80
2023-04-09T14:32:02.725Z,4.03
2023-04-09T14:34:29.970Z,3.80
2023-04-09T14:36:57.312Z,3.78
2023-04-09T14:39:24.492Z,4.00
2023-04-09T14:41:51.871Z,3.22
2023-04-09T14:44:19.184Z,3.70
2023-04-09T14:46:46.458Z,4.13
2023-04-09T14:49:13.734Z,3.13
2023-04-09T14:51:41.071Z,3.55
2023-04-09T14:54:08.251Z,3.92
2023-04-09T14:56:35.457Z,3.20
2023-04-09T14:59:02.722Z,3.53
2023-04-09T15:01:31.245Z,3.63
2023-04-09T15:04:00.533Z,3.42
2023-04-09T15:06:28.064Z,3.50
2023-04-09T15:08:55.324Z,3.60
2023-04-09T15:11:25.698Z,3.90
2023-04-09T15:13:52.955Z,4.13
2023-04-09T15:16:20.389Z,6.00
2023-04-09T15:18:49.803Z,4.75
2023-04-09T15:21:17.104Z,4.82
2023-04-09T15:23:44.412Z,5.22
2023-04-09T15:26:11.680Z,4.80
2023-04-09T15:28:38.945Z,5.18
2023-04-09T15:31:06.216Z,4.85
2023-04-09T15:33:33.556Z,6.00
2023-04-09T15:36:00.759Z,5.25
2023-04-09T15:38:28.142Z,5.47
2023-04-09T15:40:55.470Z,5.35
2023-04-09T15:43:23.390Z,6.60
2023-04-09T15:45:50.964Z,6.82
2023-04-09T15:48:19.308Z,6.70
2023-04-09T15:50:46.767Z,7.43
2023-04-09T15:53:14.187Z,7.15
2023-04-09T15:55:41.468Z,6.63
2023-04-09T15:58:08.793Z,7.28
2023-04-09T16:00:36.407Z,6.22
2023-04-09T16:03:03.821Z,5.93
2023-04-09T16:05:31.102Z,5.75
2023-04-09T16:07:59.977Z,5.57
2023-04-09T16:10:27.376Z,5.30
2023-04-09T16:12:54.672Z,5.60
2023-04-09T16:15:21.958Z,6.32
2023-04-09T16:17:49.311Z,5.20
2023-04-09T16:20:16.592Z,5.30
2023-04-09T16:22:43.855Z,5.32
2023-04-09T16:25:11.173Z,4.93
2023-04-09T16:27:38.459Z,4.45
2023-04-09T16:30:05.971Z,3.60
2023-04-09T16:32:33.250Z,3.53
2023-04-09T16:35:00.860Z,4.78
2023-04-09T16:37:29.363Z,4.53
2023-04-09T16:39:57.369Z,4.85
2023-04-09T16:42:26.824Z,4.65
2023-04-09T16:44:54.394Z,4.97
2023-04-09T16:47:21.732Z,3.67
2023-04-09T16:49:48.966Z,3.13
2023-04-09T16:52:16.441Z,3.30
2023-04-09T16:54:43.656Z,4.15
2023-04-09T16:57:11.197Z,4.10
2023-04-09T16:59:40.708Z,3.22
2023-04-09T17:02:08.101Z,3.75
2023-04-09T17:04:37.558Z,3.22
2023-04-09T17:07:04.834Z,3.75
2023-04-09T17:09:32.111Z,3.83
2023-04-09T17:11:59.356Z,3.13
2023-04-09T17:14:27.516Z,2.88
2023-04-09T17:16:55.048Z,3.50
2023-04-09T17:19:22.366Z,4.40
2023-04-09T17:21:49.747Z,3.28
2023-04-09T17:24:16.969Z,3.08
2023-04-09T17:26:44.193Z,3.22
2023-04-09T17:29:11.440Z,3.13
2023-04-09T17:31:38.893Z,3.67
2023-04-09T17:34:06.362Z,4.10
2023-04-09T17:36:33.661Z,3.90
2023-04-09T17:39:00.850Z,3.88
2023-04-09T17:41:28.133Z,5.18
2023-04-09T17:43:55.313Z,3.65
2023-04-09T17:46:22.794Z,4.88
2023-04-09T17:48:50.211Z,2.80
2023-04-09T17:51:18.510Z,2.78
2023-04-09T17:53:45.959Z,3.33
2023-04-09T17:56:13.218Z,3.17
2023-04-09T17:58:40.457Z,1.80
2023-04-09T18:01:08.015Z,2.33
2023-04-09T18:03:35.738Z,1.70
2023-04-09T18:06:03.392Z,1.98
2023-04-09T18:08:30.841Z,1.70
2023-04-09T18:11:11.368Z,2.15
2023-04-09T18:13:39.844Z,1.88
2023-04-09T18:16:07.184Z,2.38
2023-04-09T18:18:34.559Z,1.88
2023-04-09T18:21:01.787Z,2.20
2023-04-09T18:23:29.101Z,2.42
2023-04-09T18:25:56.392Z,2.70
2023-04-09T18:28:23.712Z,3.35
2023-04-09T18:30:51.610Z,3.72
2023-04-09T18:33:18.997Z,3.38
2023-04-09T18:35:46.548Z,4.75
2023-04-09T18:38:13.885Z,3.90
2023-04-09T18:40:41.396Z,4.53
2023-04-09T18:43:08.806Z,4.85
2023-04-09T18:45:36.095Z,4.57
2023-04-09T18:48:03.433Z,6.03
2023-04-09T18:50:30.787Z,5.88
2023-04-09T18:52:58.084Z,5.88
2023-04-09T18:55:25.374Z,5.88
2023-04-09T18:57:52.651Z,5.78
2023-04-09T19:00:19.854Z,6.18
2023-04-09T19:02:47.931Z,5.72
2023-04-09T19:05:15.303Z,7.38
2023-04-09T19:07:43.439Z,5.97
2023-04-09T19:10:10.919Z,5.25
2023-04-09T19:12:38.247Z,6.20
2023-04-09T19:15:06.265Z,6.05
2023-04-09T19:17:34.171Z,5.97
2023-04-09T19:20:01.399Z,5.93
2023-04-09T19:22:28.654Z,5.53
2023-04-09T19:24:56.165Z,5.95
2023-04-09T19:27:23.410Z,5.25
2023-04-09T19:29:50.817Z,5.28
2023-04-09T19:32:18.071Z,4.97
2023-04-09T19:34:45.333Z,4.78
2023-04-09T19:37:15.182Z,5.80
2023-04-09T19:39:42.430Z,4.57
2023-04-09T19:42:09.777Z,4.88
2023-04-09T19:44:37.106Z,4.22
2023-04-09T19:47:04.498Z,4.30
2023-04-09T19:49:31.798Z,5.00
2023-04-09T19:51:59.036Z,4.15
2023-04-09T19:54:26.746Z,4.97
2023-04-09T19:56:53.968Z,5.38
2023-04-09T19:59:21.770Z,4.63
2023-04-09T20:01:49.236Z,4.85
2023-04-09T20:04:16.850Z,4.93
2023-04-09T20:06:44.137Z,4.78
2023-04-09T20:09:14.493Z,5.25
2023-04-09T20:11:42.201Z,4.75
2023-04-09T20:14:12.260Z,4.88
2023-04-09T20:16:39.667Z,4.80
2023-04-09T20:19:06.944Z,4.95
2023-04-09T20:21:34.484Z,5.05
2023-04-09T20:24:02.604Z,5.05
2023-04-09T20:26:29.899Z,5.10
2023-04-09T20:28:57.578Z,5.05
2023-04-09T20:31:24.875Z,4.90
2023-04-09T20:33:52.063Z,6.32
2023-04-09T20:36:19.383Z,5.88
2023-04-09T20:38:46.710Z,5.00
2023-04-09T20:41:14.033Z,4.78
2023-04-09T20:43:41.366Z,4.43
2023-04-09T20:46:08.758Z,5.05
2023-04-09T20:48:36.309Z,5.07
2023-04-09T20:51:03.841Z,6.00
2023-04-09T20:53:31.110Z,6.50
2023-04-09T20:55:58.706Z,4.55
2023-04-09T20:58:26.165Z,5.13
2023-04-09T21:00:54.493Z,5.68
2023-04-09T21:03:21.903Z,5.85
2023-04-09T21:05:49.317Z,5.20
2023-04-09T21:08:16.560Z,5.82
2023-04-09T21:10:43.902Z,4.88
2023-04-09T21:13:11.247Z,5.45
2023-04-09T21:15:38.460Z,5.93
2023-04-09T21:18:05.728Z,4.25
2023-04-09T21:20:33.071Z,4.63
2023-04-09T21:23:00.456Z,5.20
2023-04-09T21:25:27.780Z,5.53
2023-04-09T21:27:55.123Z,5.75
2023-04-09T21:30:22.496Z,5.45
2023-04-09T21:32:49.793Z,4.47
2023-04-09T21:35:17.232Z,5.75
2023-04-09T21:37:44.505Z,4.85
2023-04-09T21:40:11.731Z,5.13
2023-04-09T21:42:39.022Z,5.63
2023-04-09T21:45:06.549Z,5.22
2023-04-09T21:47:33.777Z,5.78
2023-04-09T21:50:01.240Z,6.15
2023-04-09T21:52:28.468Z,5.20
2023-04-09T21:54:55.797Z,4.47
2023-04-09T21:57:23.083Z,4.93
2023-04-09T21:59:50.370Z,5.22
2023-04-09T22:02:17.685Z,4.50
2023-04-09T22:04:45.075Z,5.30
2023-04-09T22:07:12.331Z,4.68
2023-04-09T22:09:39.625Z,5.28
2023-04-09T22:12:07.139Z,5.05
2023-04-09T22:14:34.356Z,4.80
2023-04-09T22:17:01.834Z,5.60
2023-04-09T22:19:29.172Z,5.00
2023-04-09T22:21:56.336Z,5.15
2023-04-09T22:24:27.181Z,5.38
2023-04-09T22:26:54.598Z,5.68
2023-04-09T22:29:21.839Z,5.00
2023-04-09T22:31:49.032Z,4.97
2023-04-09T22:34:21.242Z,4.88
2023-04-09T22:36:49.483Z,4.85
2023-04-09T22:39:16.765Z,6.38
2023-04-09T22:41:44.084Z,5.50
2023-04-09T22:44:11.346Z,5.25
2023-04-09T22:46:38.634Z,5.88
2023-04-09T22:49:06.407Z,5.05
2023-04-09T22:51:36.772Z,4.97
2023-04-09T22:54:04.048Z,4.93
2023-04-09T22:56:31.810Z,5.63
2023-04-09T22:58:59.281Z,5.25
2023-04-09T23:01:26.672Z,5.25
2023-04-09T23:03:54.087Z,6.15
2023-04-09T23:06:22.604Z,5.35
2023-04-09T23:08:50.464Z,5.80
2023-04-09T23:11:17.697Z,5.13
2023-04-09T23:13:44.982Z,6.15
2023-04-09T23:16:12.291Z,5.45
2023-04-09T23:18:39.542Z,5.53
2023-04-09T23:21:07.130Z,6.28
2023-04-09T23:23:34.422Z,5.55
2023-04-09T23:26:01.830Z,7.68
2023-04-09T23:28:29.182Z,6.30
2023-04-09T23:30:56.910Z,6.20
2023-04-09T23:33:24.279Z,7.03
2023-04-09T23:35:51.557Z,6.05
2023-04-09T23:38:18.904Z,6.45
2023-04-09T23:40:47.505Z,6.57
2023-04-09T23:43:14.784Z,6.80
2023-04-09T23:45:42.005Z,6.65
2023-04-09T23:48:09.289Z,6.28
2023-04-09T23:50:36.634Z,6.38
2023-04-09T23:53:04.497Z,6.95
2023-04-09T23:55:33.383Z,6.72
2023-04-09T23:58:01.698Z,7.22
